sensor_id;sensor_type;location;lat;lon;timestamp;P1;durP1;ratioP1;P2;durP2;ratioP2
43527;SDS011;52359;42.658;23.320;2022-10-20T00:00:04;30.98;;;18.70;;
43527;SDS011;52359;42.658;23.320;2022-10-20T00:02:30;30.08;;;18.63;;
43527;SDS011;52359;42.658;23.320;2022-10-20T00:04:56;20.88;;;17.45;;
43527;SDS011;52359;42.658;23.320;2022-10-20T00:07:22;23.65;;;18.33;;
43527;SDS011;52359;42.658;23.320;2022-10-20T00:09:48;27.98;;;17.60;;
43527;SDS011;52359;42.658;23.320;2022-10-20T00:12:14;25.05;;;15.13;;
43527;SDS011;52359;42.658;23.320;2022-10-20T00:14:40;27.67;;;16.30;;
43527;SDS011;52359;42.658;23.320;2022-10-20T00:17:06;24.38;;;16.13;;
43527;SDS011;52359;42.658;23.320;2022-10-20T00:19:32;21.27;;;15.88;;
43527;SDS011;52359;42.658;23.320;2022-10-20T00:21:58;20.20;;;15.85;;
43527;SDS011;52359;42.658;23.320;2022-10-20T00:24:25;20.92;;;13.77;;
43527;SDS011;52359;42.658;23.320;2022-10-20T00:26:51;18.92;;;14.13;;
43527;SDS011;52359;42.658;23.320;2022-10-20T00:29:17;18.30;;;13.93;;
43527;SDS011;52359;42.658;23.320;2022-10-20T00:31:43;21.60;;;12.52;;
43527;SDS011;52359;42.658;23.320;2022-10-20T00:34:09;19.73;;;12.07;;
43527;SDS011;52359;42.658;23.320;2022-10-20T00:36:35;18.75;;;12.88;;
43527;SDS011;52359;42.658;23.320;2022-10-20T00:39:02;18.70;;;12.93;;
43527;SDS011;52359;42.658;23.320;2022-10-20T00:41:29;21.75;;;12.77;;
43527;SDS011;52359;42.658;23.320;2022-10-20T00:43:59;14.30;;;11.27;;
43527;SDS011;52359;42.658;23.320;2022-10-20T00:46:27;18.27;;;12.50;;
43527;SDS011;52359;42.658;23.320;2022-10-20T00:48:56;14.73;;;10.90;;
43527;SDS011;52359;42.658;23.320;2022-10-20T00:51:24;12.93;;;10.70;;
43527;SDS011;52359;42.658;23.320;2022-10-20T00:53:51;17.33;;;11.85;;
43527;SDS011;52359;42.658;23.320;2022-10-20T00:56:18;14.88;;;9.38;;
43527;SDS011;52359;42.658;23.320;2022-10-20T00:58:45;14.48;;;10.43;;
43527;SDS011;52359;42.658;23.320;2022-10-20T01:01:11;14.30;;;10.13;;
43527;SDS011;52359;42.658;23.320;2022-10-20T01:03:48;13.27;;;9.60;;
43527;SDS011;52359;42.658;23.320;2022-10-20T01:06:16;15.85;;;9.75;;
43527;SDS011;52359;42.658;23.320;2022-10-20T01:08:42;11.45;;;8.60;;
43527;SDS011;52359;42.658;23.320;2022-10-20T01:11:14;14.63;;;8.98;;
43527;SDS011;52359;42.658;23.320;2022-10-20T01:27:25;13.50;;;8.60;;
43527;SDS011;52359;42.658;23.320;2022-10-20T01:32:21;9.77;;;7.68;;
43527;SDS011;52359;42.658;23.320;2022-10-20T01:35:03;10.98;;;7.65;;
43527;SDS011;52359;42.658;23.320;2022-10-20T01:37:34;14.18;;;8.57;;
43527;SDS011;52359;42.658;23.320;2022-10-20T01:42:37;8.32;;;7.53;;
43527;SDS011;52359;42.658;23.320;2022-10-20T01:45:04;10.15;;;7.85;;
43527;SDS011;52359;42.658;23.320;2022-10-20T01:47:32;9.65;;;7.95;;
43527;SDS011;52359;42.658;23.320;2022-10-20T01:49:59;10.50;;;7.78;;
43527;SDS011;52359;42.658;23.320;2022-10-20T01:52:27;10.57;;;8.30;;
43527;SDS011;52359;42.658;23.320;2022-10-20T01:54:54;9.35;;;8.35;;
43527;SDS011;52359;42.658;23.320;2022-10-20T02:07:38;10.23;;;7.82;;
43527;SDS011;52359;42.658;23.320;2022-10-20T02:10:08;11.50;;;7.97;;
43527;SDS011;52359;42.658;23.320;2022-10-20T02:12:38;13.23;;;7.55;;
43527;SDS011;52359;42.658;23.320;2022-10-20T02:15:05;10.57;;;8.57;;
43527;SDS011;52359;42.658;23.320;2022-10-20T02:17:33;14.68;;;8.55;;
43527;SDS011;52359;42.658;23.320;2022-10-20T02:19:59;12.73;;;8.23;;
43527;SDS011;52359;42.658;23.320;2022-10-20T02:22:25;13.23;;;8.57;;
43527;SDS011;52359;42.658;23.320;2022-10-20T02:24:52;11.38;;;9.13;;
43527;SDS011;52359;42.658;23.320;2022-10-20T02:27:28;14.48;;;9.02;;
43527;SDS011;52359;42.658;23.320;2022-10-20T02:30:02;11.50;;;8.80;;
43527;SDS011;52359;42.658;23.320;2022-10-20T02:32:28;12.73;;;8.93;;
43527;SDS011;52359;42.658;23.320;2022-10-20T02:34:54;15.68;;;8.43;;
43527;SDS011;52359;42.658;23.320;2022-10-20T02:37:20;15.57;;;9.00;;
43527;SDS011;52359;42.658;23.320;2022-10-20T02:39:46;14.35;;;8.70;;
43527;SDS011;52359;42.658;23.320;2022-10-20T02:42:12;18.88;;;9.48;;
43527;SDS011;52359;42.658;23.320;2022-10-20T02:44:41;11.38;;;8.65;;
43527;SDS011;52359;42.658;23.320;2022-10-20T02:47:07;13.88;;;8.65;;
43527;SDS011;52359;42.658;23.320;2022-10-20T02:49:33;10.52;;;8.65;;
43527;SDS011;52359;42.658;23.320;2022-10-20T02:51:59;13.65;;;8.65;;
43527;SDS011;52359;42.658;23.320;2022-10-20T02:54:25;13.27;;;9.52;;
43527;SDS011;52359;42.658;23.320;2022-10-20T02:56:52;12.48;;;9.07;;
43527;SDS011;52359;42.658;23.320;2022-10-20T02:59:18;14.57;;;9.30;;
43527;SDS011;52359;42.658;23.320;2022-10-20T03:01:45;10.75;;;9.27;;
43527;SDS011;52359;42.658;23.320;2022-10-20T03:04:11;10.32;;;8.55;;
43527;SDS011;52359;42.658;23.320;2022-10-20T03:06:39;18.75;;;8.98;;
43527;SDS011;52359;42.658;23.320;2022-10-20T03:09:06;15.15;;;9.82;;
43527;SDS011;52359;42.658;23.320;2022-10-20T03:11:32;14.48;;;9.50;;
43527;SDS011;52359;42.658;23.320;2022-10-20T03:13:58;16.02;;;9.23;;
43527;SDS011;52359;42.658;23.320;2022-10-20T03:16:24;13.75;;;9.43;;
43527;SDS011;52359;42.658;23.320;2022-10-20T03:18:50;12.65;;;9.70;;
43527;SDS011;52359;42.658;23.320;2022-10-20T03:21:16;13.90;;;10.63;;
43527;SDS011;52359;42.658;23.320;2022-10-20T03:23:41;13.73;;;9.52;;
43527;SDS011;52359;42.658;23.320;2022-10-20T03:26:08;19.23;;;10.75;;
43527;SDS011;52359;42.658;23.320;2022-10-20T03:28:36;15.27;;;10.13;;
43527;SDS011;52359;42.658;23.320;2022-10-20T03:31:02;22.00;;;10.43;;
43527;SDS011;52359;42.658;23.320;2022-10-20T03:33:28;15.27;;;9.35;;
43527;SDS011;52359;42.658;23.320;2022-10-20T03:35:54;15.35;;;9.48;;
43527;SDS011;52359;42.658;23.320;2022-10-20T03:38:21;12.25;;;9.75;;
43527;SDS011;52359;42.658;23.320;2022-10-20T03:40:47;17.88;;;9.18;;
43527;SDS011;52359;42.658;23.320;2022-10-20T03:43:13;15.05;;;9.55;;
43527;SDS011;52359;42.658;23.320;2022-10-20T03:45:42;13.18;;;9.50;;
43527;SDS011;52359;42.658;23.320;2022-10-20T03:48:08;13.07;;;10.35;;
43527;SDS011;52359;42.658;23.320;2022-10-20T03:50:36;15.20;;;9.60;;
43527;SDS011;52359;42.658;23.320;2022-10-20T03:53:02;18.20;;;10.32;;
43527;SDS011;52359;42.658;23.320;2022-10-20T03:55:28;13.05;;;9.23;;
43527;SDS011;52359;42.658;23.320;2022-10-20T03:57:54;14.63;;;8.25;;
43527;SDS011;52359;42.658;23.320;2022-10-20T04:00:20;13.98;;;10.35;;
43527;SDS011;52359;42.658;23.320;2022-10-20T04:02:46;15.65;;;10.13;;
43527;SDS011;52359;42.658;23.320;2022-10-20T04:05:13;12.82;;;9.48;;
43527;SDS011;52359;42.658;23.320;2022-10-20T04:07:39;22.25;;;11.70;;
43527;SDS011;52359;42.658;23.320;2022-10-20T04:10:06;20.98;;;12.52;;
43527;SDS011;52359;42.658;23.320;2022-10-20T04:12:32;26.27;;;12.50;;
43527;SDS011;52359;42.658;23.320;2022-10-20T04:14:58;16.30;;;10.10;;
43527;SDS011;52359;42.658;23.320;2022-10-20T04:17:23;13.35;;;10.25;;
43527;SDS011;52359;42.658;23.320;2022-10-20T04:19:49;15.25;;;9.25;;
43527;SDS011;52359;42.658;23.320;2022-10-20T04:22:15;16.30;;;9.57;;
43527;SDS011;52359;42.658;23.320;2022-10-20T04:24:41;15.23;;;9.65;;
43527;SDS011;52359;42.658;23.320;2022-10-20T04:27:07;14.60;;;10.07;;
43527;SDS011;52359;42.658;23.320;2022-10-20T04:29:33;18.75;;;11.73;;
43527;SDS011;52359;42.658;23.320;2022-10-20T04:31:59;20.77;;;12.75;;
43527;SDS011;52359;42.658;23.320;2022-10-20T04:34:25;16.42;;;11.38;;
43527;SDS011;52359;42.658;23.320;2022-10-20T04:36:51;15.85;;;9.20;;
43527;SDS011;52359;42.658;23.320;2022-10-20T04:39:17;13.13;;;9.23;;
43527;SDS011;52359;42.658;23.320;2022-10-20T04:41:43;14.85;;;10.25;;
43527;SDS011;52359;42.658;23.320;2022-10-20T04:44:09;18.63;;;9.93;;
43527;SDS011;52359;42.658;23.320;2022-10-20T04:46:35;13.40;;;9.98;;
43527;SDS011;52359;42.658;23.320;2022-10-20T04:49:01;16.20;;;9.95;;
43527;SDS011;52359;42.658;23.320;2022-10-20T04:51:27;15.75;;;9.77;;
43527;SDS011;52359;42.658;23.320;2022-10-20T04:53:53;18.35;;;10.10;;
43527;SDS011;52359;42.658;23.320;2022-10-20T04:56:19;20.70;;;10.00;;
43527;SDS011;52359;42.658;23.320;2022-10-20T04:58:49;20.67;;;8.90;;
43527;SDS011;52359;42.658;23.320;2022-10-20T05:01:17;15.75;;;9.23;;
43527;SDS011;52359;42.658;23.320;2022-10-20T05:03:43;15.18;;;9.38;;
43527;SDS011;52359;42.658;23.320;2022-10-20T05:06:13;14.95;;;10.07;;
43527;SDS011;52359;42.658;23.320;2022-10-20T05:08:39;20.73;;;12.05;;
43527;SDS011;52359;42.658;23.320;2022-10-20T05:11:07;16.85;;;9.05;;
43527;SDS011;52359;42.658;23.320;2022-10-20T05:13:33;19.90;;;11.02;;
43527;SDS011;52359;42.658;23.320;2022-10-20T05:15:59;17.58;;;9.55;;
43527;SDS011;52359;42.658;23.320;2022-10-20T05:18:25;13.45;;;8.45;;
43527;SDS011;52359;42.658;23.320;2022-10-20T05:20:51;14.95;;;8.85;;
43527;SDS011;52359;42.658;23.320;2022-10-20T05:23:16;13.70;;;8.57;;
43527;SDS011;52359;42.658;23.320;2022-10-20T05:25:42;11.88;;;8.25;;
43527;SDS011;52359;42.658;23.320;2022-10-20T05:28:08;15.73;;;9.13;;
43527;SDS011;52359;42.658;23.320;2022-10-20T05:30:34;17.20;;;9.02;;
43527;SDS011;52359;42.658;23.320;2022-10-20T05:33:00;13.95;;;9.13;;
43527;SDS011;52359;42.658;23.320;2022-10-20T05:35:27;11.95;;;8.40;;
43527;SDS011;52359;42.658;23.320;2022-10-20T05:37:53;20.83;;;8.45;;
43527;SDS011;52359;42.658;23.320;2022-10-20T05:40:19;10.52;;;8.73;;
43527;SDS011;52359;42.658;23.320;2022-10-20T05:42:45;15.35;;;9.05;;
43527;SDS011;52359;42.658;23.320;2022-10-20T05:45:11;12.65;;;8.75;;
43527;SDS011;52359;42.658;23.320;2022-10-20T05:47:37;18.73;;;8.48;;
43527;SDS011;52359;42.658;23.320;2022-10-20T05:50:03;13.75;;;10.45;;
43527;SDS011;52359;42.658;23.320;2022-10-20T05:52:29;16.77;;;8.88;;
43527;SDS011;52359;42.658;23.320;2022-10-20T05:54:54;19.55;;;10.60;;
43527;SDS011;52359;42.658;23.320;2022-10-20T05:57:20;17.05;;;9.43;;
43527;SDS011;52359;42.658;23.320;2022-10-20T05:59:45;12.93;;;8.95;;
43527;SDS011;52359;42.658;23.320;2022-10-20T06:02:11;17.67;;;9.82;;
43527;SDS011;52359;42.658;23.320;2022-10-20T06:04:37;13.32;;;9.48;;
43527;SDS011;52359;42.658;23.320;2022-10-20T06:07:03;15.93;;;10.40;;
43527;SDS011;52359;42.658;23.320;2022-10-20T06:09:30;17.13;;;10.35;;
43527;SDS011;52359;42.658;23.320;2022-10-20T06:11:56;13.95;;;10.32;;
43527;SDS011;52359;42.658;23.320;2022-10-20T06:14:23;16.67;;;9.73;;
43527;SDS011;52359;42.658;23.320;2022-10-20T06:16:50;18.35;;;10.50;;
43527;SDS011;52359;42.658;23.320;2022-10-20T06:19:17;15.63;;;10.48;;
43527;SDS011;52359;42.658;23.320;2022-10-20T06:21:43;17.30;;;10.70;;
43527;SDS011;52359;42.658;23.320;2022-10-20T06:24:09;16.00;;;11.30;;
43527;SDS011;52359;42.658;23.320;2022-10-20T06:26:35;18.10;;;11.45;;
43527;SDS011;52359;42.658;23.320;2022-10-20T06:29:03;15.55;;;11.15;;
43527;SDS011;52359;42.658;23.320;2022-10-20T06:31:30;17.60;;;10.48;;
43527;SDS011;52359;42.658;23.320;2022-10-20T06:33:56;22.65;;;10.35;;
43527;SDS011;52359;42.658;23.320;2022-10-20T06:36:23;14.38;;;10.48;;
43527;SDS011;52359;42.658;23.320;2022-10-20T06:38:54;17.33;;;10.68;;
43527;SDS011;52359;42.658;23.320;2022-10-20T06:41:21;16.10;;;9.80;;
43527;SDS011;52359;42.658;23.320;2022-10-20T06:43:47;16.45;;;9.88;;
43527;SDS011;52359;42.658;23.320;2022-10-20T06:46:14;16.45;;;10.30;;
43527;SDS011;52359;42.658;23.320;2022-10-20T06:48:42;13.32;;;9.77;;
43527;SDS011;52359;42.658;23.320;2022-10-20T06:51:09;15.18;;;10.10;;
43527;SDS011;52359;42.658;23.320;2022-10-20T06:53:37;16.83;;;10.43;;
43527;SDS011;52359;42.658;23.320;2022-10-20T06:56:05;15.43;;;10.43;;
43527;SDS011;52359;42.658;23.320;2022-10-20T06:58:33;13.65;;;10.50;;
43527;SDS011;52359;42.658;23.320;2022-10-20T07:01:07;13.68;;;9.73;;
43527;SDS011;52359;42.658;23.320;2022-10-20T07:03:33;21.30;;;10.25;;
43527;SDS011;52359;42.658;23.320;2022-10-20T07:06:00;31.30;;;11.05;;
43527;SDS011;52359;42.658;23.320;2022-10-20T07:08:27;12.52;;;10.88;;
43527;SDS011;52359;42.658;23.320;2022-10-20T07:11:01;17.75;;;11.00;;
43527;SDS011;52359;42.658;23.320;2022-10-20T07:13:29;26.38;;;11.32;;
43527;SDS011;52359;42.658;23.320;2022-10-20T07:15:56;12.93;;;10.38;;
43527;SDS011;52359;42.658;23.320;2022-10-20T07:18:22;17.27;;;10.55;;
43527;SDS011;52359;42.658;23.320;2022-10-20T07:20:48;19.88;;;8.57;;
43527;SDS011;52359;42.658;23.320;2022-10-20T07:23:14;16.90;;;9.30;;
43527;SDS011;52359;42.658;23.320;2022-10-20T07:25:40;13.00;;;8.82;;
43527;SDS011;52359;42.658;23.320;2022-10-20T07:28:06;10.60;;;8.32;;
43527;SDS011;52359;42.658;23.320;2022-10-20T07:30:36;22.73;;;8.90;;
43527;SDS011;52359;42.658;23.320;2022-10-20T07:33:05;15.93;;;10.35;;
43527;SDS011;52359;42.658;23.320;2022-10-20T07:35:31;25.50;;;9.65;;
43527;SDS011;52359;42.658;23.320;2022-10-20T07:37:58;18.70;;;9.85;;
43527;SDS011;52359;42.658;23.320;2022-10-20T07:40:24;16.25;;;7.95;;
43527;SDS011;52359;42.658;23.320;2022-10-20T07:42:49;16.65;;;8.73;;
43527;SDS011;52359;42.658;23.320;2022-10-20T07:45:15;13.65;;;9.55;;
43527;SDS011;52359;42.658;23.320;2022-10-20T07:47:40;13.57;;;9.10;;
43527;SDS011;52359;42.658;23.320;2022-10-20T07:50:07;17.40;;;8.50;;
43527;SDS011;52359;42.658;23.320;2022-10-20T07:52:34;18.55;;;8.55;;
43527;SDS011;52359;42.658;23.320;2022-10-20T07:54:59;18.80;;;8.30;;
43527;SDS011;52359;42.658;23.320;2022-10-20T07:57:25;11.70;;;8.48;;
43527;SDS011;52359;42.658;23.320;2022-10-20T07:59:51;25.33;;;9.32;;
43527;SDS011;52359;42.658;23.320;2022-10-20T08:02:16;13.32;;;8.48;;
43527;SDS011;52359;42.658;23.320;2022-10-20T08:04:42;12.50;;;8.48;;
43527;SDS011;52359;42.658;23.320;2022-10-20T08:07:08;9.65;;;7.40;;
43527;SDS011;52359;42.658;23.320;2022-10-20T08:09:35;11.40;;;8.15;;
43527;SDS011;52359;42.658;23.320;2022-10-20T08:12:01;12.93;;;7.78;;
43527;SDS011;52359;42.658;23.320;2022-10-20T08:14:27;9.50;;;7.43;;
43527;SDS011;52359;42.658;23.320;2022-10-20T08:16:57;10.13;;;7.43;;
43527;SDS011;52359;42.658;23.320;2022-10-20T08:19:23;9.80;;;6.43;;
43527;SDS011;52359;42.658;23.320;2022-10-20T08:21:49;12.43;;;7.20;;
43527;SDS011;52359;42.658;23.320;2022-10-20T08:24:15;20.83;;;7.97;;
43527;SDS011;52359;42.658;23.320;2022-10-20T08:26:41;13.20;;;8.73;;
43527;SDS011;52359;42.658;23.320;2022-10-20T08:29:07;10.73;;;6.93;;
43527;SDS011;52359;42.658;23.320;2022-10-20T08:31:33;11.07;;;6.82;;
43527;SDS011;52359;42.658;23.320;2022-10-20T08:33:59;15.77;;;7.18;;
43527;SDS011;52359;42.658;23.320;2022-10-20T08:36:26;20.83;;;6.63;;
43527;SDS011;52359;42.658;23.320;2022-10-20T08:38:52;13.52;;;7.20;;
43527;SDS011;52359;42.658;23.320;2022-10-20T08:41:25;9.45;;;6.30;;
43527;SDS011;52359;42.658;23.320;2022-10-20T08:43:54;14.65;;;5.90;;
43527;SDS011;52359;42.658;23.320;2022-10-20T08:46:23;9.50;;;5.70;;
43527;SDS011;52359;42.658;23.320;2022-10-20T08:48:58;15.98;;;6.82;;
43527;SDS011;52359;42.658;23.320;2022-10-20T08:51:27;9.05;;;6.78;;
43527;SDS011;52359;42.658;23.320;2022-10-20T08:53:55;20.05;;;7.00;;
43527;SDS011;52359;42.658;23.320;2022-10-20T08:56:23;10.05;;;6.30;;
43527;SDS011;52359;42.658;23.320;2022-10-20T08:58:50;18.33;;;6.68;;
43527;SDS011;52359;42.658;23.320;2022-10-20T09:03:42;10.93;;;6.25;;
43527;SDS011;52359;42.658;23.320;2022-10-20T09:06:11;8.32;;;5.10;;
43527;SDS011;52359;42.658;23.320;2022-10-20T09:08:38;15.40;;;4.90;;
43527;SDS011;52359;42.658;23.320;2022-10-20T09:11:06;12.35;;;5.07;;
43527;SDS011;52359;42.658;23.320;2022-10-20T09:13:32;8.55;;;5.28;;
43527;SDS011;52359;42.658;23.320;2022-10-20T09:16:04;9.90;;;4.50;;
43527;SDS011;52359;42.658;23.320;2022-10-20T09:18:49;7.30;;;4.47;;
43527;SDS011;52359;42.658;23.320;2022-10-20T09:21:19;8.02;;;4.35;;
43527;SDS011;52359;42.658;23.320;2022-10-20T09:23:55;8.63;;;3.85;;
43527;SDS011;52359;42.658;23.320;2022-10-20T09:26:33;7.85;;;3.20;;
43527;SDS011;52359;42.658;23.320;2022-10-20T09:29:10;10.02;;;3.75;;
43527;SDS011;52359;42.658;23.320;2022-10-20T09:31:52;8.88;;;3.88;;
43527;SDS011;52359;42.658;23.320;2022-10-20T09:36:57;5.38;;;3.63;;
43527;SDS011;52359;42.658;23.320;2022-10-20T09:39:27;7.15;;;3.30;;
43527;SDS011;52359;42.658;23.320;2022-10-20T09:41:58;5.57;;;3.13;;
43527;SDS011;52359;42.658;23.320;2022-10-20T09:44:25;3.42;;;3.13;;
43527;SDS011;52359;42.658;23.320;2022-10-20T09:46:51;5.45;;;3.25;;
43527;SDS011;52359;42.658;23.320;2022-10-20T09:49:35;4.00;;;2.80;;
43527;SDS011;52359;42.658;23.320;2022-10-20T09:52:02;9.05;;;2.80;;
43527;SDS011;52359;42.658;23.320;2022-10-20T09:54:29;6.38;;;2.90;;
43527;SDS011;52359;42.658;23.320;2022-10-20T09:57:05;6.28;;;3.33;;
43527;SDS011;52359;42.658;23.320;2022-10-20T09:59:38;15.13;;;3.47;;
43527;SDS011;52359;42.658;23.320;2022-10-20T10:04:38;10.98;;;3.08;;
43527;SDS011;52359;42.658;23.320;2022-10-20T10:07:09;7.47;;;2.85;;
43527;SDS011;52359;42.658;23.320;2022-10-20T10:19:55;48.42;;;3.28;;
43527;SDS011;52359;42.658;23.320;2022-10-20T10:22:21;13.27;;;3.08;;
43527;SDS011;52359;42.658;23.320;2022-10-20T10:24:47;24.48;;;2.58;;
43527;SDS011;52359;42.658;23.320;2022-10-20T10:27:24;18.38;;;3.10;;
43527;SDS011;52359;42.658;23.320;2022-10-20T10:29:51;4.97;;;2.75;;
43527;SDS011;52359;42.658;23.320;2022-10-20T10:32:21;6.65;;;2.95;;
43527;SDS011;52359;42.658;23.320;2022-10-20T10:37:33;17.75;;;2.80;;
43527;SDS011;52359;42.658;23.320;2022-10-20T10:40:00;10.70;;;2.70;;
43527;SDS011;52359;42.658;23.320;2022-10-20T10:45:31;12.38;;;2.17;;
43527;SDS011;52359;42.658;23.320;2022-10-20T10:50:58;27.70;;;2.60;;
43527;SDS011;52359;42.658;23.320;2022-10-20T11:01:42;49.42;;;4.82;;
43527;SDS011;52359;42.658;23.320;2022-10-20T11:07:12;6.22;;;2.53;;
43527;SDS011;52359;42.658;23.320;2022-10-20T11:09:45;4.10;;;2.10;;
43527;SDS011;52359;42.658;23.320;2022-10-20T11:25:28;2.65;;;2.25;;
43527;SDS011;52359;42.658;23.320;2022-10-20T11:27:57;5.53;;;2.05;;
43527;SDS011;52359;42.658;23.320;2022-10-20T11:30:24;6.90;;;3.20;;
43527;SDS011;52359;42.658;23.320;2022-10-20T11:35:32;18.13;;;3.10;;
43527;SDS011;52359;42.658;23.320;2022-10-20T11:38:14;5.18;;;1.88;;
43527;SDS011;52359;42.658;23.320;2022-10-20T11:40:43;19.35;;;2.30;;
43527;SDS011;52359;42.658;23.320;2022-10-20T11:45:41;3.53;;;1.88;;
43527;SDS011;52359;42.658;23.320;2022-10-20T11:50:52;2.25;;;2.10;;
43527;SDS011;52359;42.658;23.320;2022-10-20T12:11:20;5.07;;;2.00;;
43527;SDS011;52359;42.658;23.320;2022-10-20T12:19:05;10.73;;;2.50;;
43527;SDS011;52359;42.658;23.320;2022-10-20T12:27:17;5.53;;;2.40;;
43527;SDS011;52359;42.658;23.320;2022-10-20T12:34:51;6.97;;;2.78;;
43527;SDS011;52359;42.658;23.320;2022-10-20T12:39:50;10.90;;;3.17;;
43527;SDS011;52359;42.658;23.320;2022-10-20T12:42:27;5.22;;;2.78;;
43527;SDS011;52359;42.658;23.320;2022-10-20T12:44:53;7.88;;;2.13;;
43527;SDS011;52359;42.658;23.320;2022-10-20T12:49:54;19.80;;;2.95;;
43527;SDS011;52359;42.658;23.320;2022-10-20T12:52:22;12.00;;;3.83;;
43527;SDS011;52359;42.658;23.320;2022-10-20T12:55:01;3.00;;;2.65;;
43527;SDS011;52359;42.658;23.320;2022-10-20T12:57:37;5.13;;;2.50;;
43527;SDS011;52359;42.658;23.320;2022-10-20T13:02:53;2.65;;;2.45;;
43527;SDS011;52359;42.658;23.320;2022-10-20T13:05:24;2.47;;;2.08;;
43527;SDS011;52359;42.658;23.320;2022-10-20T13:18:02;8.55;;;2.97;;
43527;SDS011;52359;42.658;23.320;2022-10-20T13:23:00;10.27;;;3.25;;
43527;SDS011;52359;42.658;23.320;2022-10-20T13:28:06;2.90;;;2.45;;
43527;SDS011;52359;42.658;23.320;2022-10-20T13:30:37;4.07;;;2.90;;
43527;SDS011;52359;42.658;23.320;2022-10-20T13:33:32;5.60;;;2.42;;
43527;SDS011;52359;42.658;23.320;2022-10-20T13:41:01;11.88;;;2.90;;
43527;SDS011;52359;42.658;23.320;2022-10-20T13:51:05;7.40;;;2.75;;
43527;SDS011;52359;42.658;23.320;2022-10-20T13:53:39;10.95;;;2.88;;
43527;SDS011;52359;42.658;23.320;2022-10-20T13:59:03;4.78;;;2.58;;
43527;SDS011;52359;42.658;23.320;2022-10-20T14:01:30;8.90;;;3.00;;
43527;SDS011;52359;42.658;23.320;2022-10-20T14:03:57;9.02;;;2.65;;
43527;SDS011;52359;42.658;23.320;2022-10-20T14:09:02;21.95;;;3.38;;
43527;SDS011;52359;42.658;23.320;2022-10-20T14:11:33;5.18;;;2.42;;
43527;SDS011;52359;42.658;23.320;2022-10-20T14:13:59;5.32;;;2.63;;
43527;SDS011;52359;42.658;23.320;2022-10-20T14:16:26;4.10;;;2.25;;
43527;SDS011;52359;42.658;23.320;2022-10-20T14:18:59;5.03;;;2.72;;
43527;SDS011;52359;42.658;23.320;2022-10-20T14:21:26;3.15;;;2.22;;
43527;SDS011;52359;42.658;23.320;2022-10-20T14:23:53;3.33;;;2.45;;
43527;SDS011;52359;42.658;23.320;2022-10-20T14:26:20;3.17;;;2.30;;
43527;SDS011;52359;42.658;23.320;2022-10-20T14:28:48;4.95;;;3.17;;
43527;SDS011;52359;42.658;23.320;2022-10-20T14:31:15;6.32;;;2.35;;
43527;SDS011;52359;42.658;23.320;2022-10-20T14:33:45;4.20;;;2.58;;
43527;SDS011;52359;42.658;23.320;2022-10-20T14:36:24;4.30;;;2.25;;
43527;SDS011;52359;42.658;23.320;2022-10-20T14:38:52;4.65;;;2.70;;
43527;SDS011;52359;42.658;23.320;2022-10-20T14:43:58;3.42;;;2.35;;
43527;SDS011;52359;42.658;23.320;2022-10-20T14:46:27;5.25;;;2.72;;
43527;SDS011;52359;42.658;23.320;2022-10-20T14:48:54;6.63;;;2.85;;
43527;SDS011;52359;42.658;23.320;2022-10-20T14:51:26;3.88;;;2.35;;
43527;SDS011;52359;42.658;23.320;2022-10-20T14:54:11;9.50;;;3.67;;
43527;SDS011;52359;42.658;23.320;2022-10-20T14:56:42;14.07;;;2.55;;
43527;SDS011;52359;42.658;23.320;2022-10-20T14:59:15;3.22;;;2.53;;
43527;SDS011;52359;42.658;23.320;2022-10-20T15:01:54;6.22;;;2.35;;
43527;SDS011;52359;42.658;23.320;2022-10-20T15:04:24;3.38;;;2.80;;
43527;SDS011;52359;42.658;23.320;2022-10-20T15:07:00;9.95;;;3.67;;
43527;SDS011;52359;42.658;23.320;2022-10-20T15:09:32;4.68;;;2.42;;
43527;SDS011;52359;42.658;23.320;2022-10-20T15:12:46;10.40;;;2.72;;
43527;SDS011;52359;42.658;23.320;2022-10-20T15:14:58;7.72;;;2.53;;
43527;SDS011;52359;42.658;23.320;2022-10-20T15:19:55;8.23;;;2.85;;
43527;SDS011;52359;42.658;23.320;2022-10-20T15:22:21;13.15;;;2.40;;
43527;SDS011;52359;42.658;23.320;2022-10-20T15:24:47;7.20;;;3.22;;
43527;SDS011;52359;42.658;23.320;2022-10-20T15:27:14;3.47;;;2.80;;
43527;SDS011;52359;42.658;23.320;2022-10-20T15:29:46;9.98;;;3.20;;
43527;SDS011;52359;42.658;23.320;2022-10-20T15:32:12;5.93;;;3.23;;
43527;SDS011;52359;42.658;23.320;2022-10-20T15:34:39;6.25;;;4.00;;
43527;SDS011;52359;42.658;23.320;2022-10-20T15:37:05;9.82;;;3.60;;
43527;SDS011;52359;42.658;23.320;2022-10-20T15:39:30;17.05;;;5.05;;
43527;SDS011;52359;42.658;23.320;2022-10-20T15:41:56;13.18;;;4.68;;
43527;SDS011;52359;42.658;23.320;2022-10-20T15:44:22;14.00;;;4.43;;
43527;SDS011;52359;42.658;23.320;2022-10-20T15:46:49;9.77;;;4.22;;
43527;SDS011;52359;42.658;23.320;2022-10-20T15:49:16;12.02;;;5.03;;
43527;SDS011;52359;42.658;23.320;2022-10-20T15:51:43;8.52;;;4.03;;
43527;SDS011;52359;42.658;23.320;2022-10-20T15:54:11;10.55;;;3.67;;
43527;SDS011;52359;42.658;23.320;2022-10-20T15:56:38;6.93;;;3.50;;
43527;SDS011;52359;42.658;23.320;2022-10-20T15:59:04;9.70;;;5.63;;
43527;SDS011;52359;42.658;23.320;2022-10-20T16:01:30;14.20;;;4.50;;
43527;SDS011;52359;42.658;23.320;2022-10-20T16:03:56;11.73;;;4.32;;
43527;SDS011;52359;42.658;23.320;2022-10-20T16:06:22;7.10;;;3.58;;
43527;SDS011;52359;42.658;23.320;2022-10-20T16:08:48;8.27;;;4.43;;
43527;SDS011;52359;42.658;23.320;2022-10-20T16:11:15;10.13;;;5.50;;
43527;SDS011;52359;42.658;23.320;2022-10-20T16:13:42;11.77;;;5.25;;
43527;SDS011;52359;42.658;23.320;2022-10-20T16:16:09;15.63;;;4.82;;
43527;SDS011;52359;42.658;23.320;2022-10-20T16:18:37;12.88;;;5.60;;
43527;SDS011;52359;42.658;23.320;2022-10-20T16:21:03;17.95;;;5.53;;
43527;SDS011;52359;42.658;23.320;2022-10-20T16:23:29;8.65;;;4.78;;
43527;SDS011;52359;42.658;23.320;2022-10-20T16:25:55;10.35;;;5.07;;
43527;SDS011;52359;42.658;23.320;2022-10-20T16:28:21;8.38;;;5.93;;
43527;SDS011;52359;42.658;23.320;2022-10-20T16:30:47;12.82;;;5.95;;
43527;SDS011;52359;42.658;23.320;2022-10-20T16:33:13;13.02;;;5.03;;
43527;SDS011;52359;42.658;23.320;2022-10-20T16:35:40;9.85;;;5.03;;
43527;SDS011;52359;42.658;23.320;2022-10-20T16:38:06;9.70;;;5.25;;
43527;SDS011;52359;42.658;23.320;2022-10-20T16:40:32;7.55;;;4.70;;
43527;SDS011;52359;42.658;23.320;2022-10-20T16:42:58;24.52;;;5.47;;
43527;SDS011;52359;42.658;23.320;2022-10-20T16:45:24;6.50;;;4.22;;
43527;SDS011;52359;42.658;23.320;2022-10-20T16:47:50;7.75;;;4.50;;
43527;SDS011;52359;42.658;23.320;2022-10-20T16:50:16;7.07;;;4.20;;
43527;SDS011;52359;42.658;23.320;2022-10-20T16:52:42;6.13;;;3.72;;
43527;SDS011;52359;42.658;23.320;2022-10-20T16:55:07;6.68;;;4.15;;
43527;SDS011;52359;42.658;23.320;2022-10-20T16:57:36;7.50;;;3.97;;
43527;SDS011;52359;42.658;23.320;2022-10-20T17:00:05;9.25;;;4.53;;
43527;SDS011;52359;42.658;23.320;2022-10-20T17:02:35;5.40;;;3.90;;
43527;SDS011;52359;42.658;23.320;2022-10-20T17:05:01;6.85;;;3.83;;
43527;SDS011;52359;42.658;23.320;2022-10-20T17:07:27;12.18;;;4.60;;
43527;SDS011;52359;42.658;23.320;2022-10-20T17:09:53;11.02;;;4.30;;
43527;SDS011;52359;42.658;23.320;2022-10-20T17:12:18;12.25;;;4.65;;
43527;SDS011;52359;42.658;23.320;2022-10-20T17:14:45;12.05;;;5.75;;